»·PEaware :: N739VR KPAN-KBXK

N739VR :: KPAN-KBXK

FLIGHT INFORMATION

Flight Status: Arrived
Operator: Privately registered:
United States
More flights under this callsign
Pilot: Russell P. (22702)
Aircraft: CESSNA 172 SKYHAWK
(C172)
More flights by this aircraft type
Origin: KPAN Payson
United States
Destination: KBXK Buckeye Mun
United States
More flights between these airports :: More routes between these airports
Route: PICHR V528 PXR V16 ALLIS
File this flight plan on PilotEdge
Remarks: NONE
Altitude:
(Current/Filed)
8,000ft
Speed:
(Current/Filed)
115kts
Departed: 27-Dec-18 06:42 PM
Arrived: 27-Dec-18 07:29 PM
Distance/Time
Traveled:
84nm/0:47
Distance/Time
To Go:
Arrived

Flight Plot

Page will automatically refresh every two minutes.

Flight plan parsing failed; only flown route is shown


Map Options




Map Legend


Flown Route
Filed Route
Departure Airport
Arrival Airport
Navaid (VOR, NDB)
Fix

Horizontal Profiles

Position Reports

Time Latitude Longitude Heading Altitude Ground
Speed
27-Dec-18 18:40 33.831714 -111.467920 231 7994ft 105kts
27-Dec-18 18:41 33.811625 -111.493473 231 7997ft 106kts
27-Dec-18 18:42 33.791172 -111.519809 232 7999ft 111kts
27-Dec-18 18:43 33.769522 -111.548066 231 8001ft 116kts
27-Dec-18 18:44 33.747185 -111.576731 231 8003ft 119kts
27-Dec-18 18:45 33.724504 -111.605630 231 8003ft 119kts
27-Dec-18 18:46 33.702278 -111.633902 231 8004ft 114kts
27-Dec-18 18:47 33.680889 -111.661050 231 8007ft 113kts
27-Dec-18 18:48 33.659083 -111.688706 231 8008ft 114kts
27-Dec-18 18:49 33.637430 -111.716137 231 8009ft 114kts
27-Dec-18 18:50 33.615694 -111.743653 231 8010ft 114kts
27-Dec-18 18:52 33.593920 -111.771196 231 8011ft 114kts
27-Dec-18 18:53 33.572156 -111.798704 231 8011ft 114kts
27-Dec-18 18:54 33.550628 -111.825866 231 8011ft 114kts
27-Dec-18 18:55 33.529065 -111.853056 231 8010ft 114kts
27-Dec-18 18:56 33.507560 -111.880169 231 8008ft 114kts
27-Dec-18 18:57 33.486003 -111.907353 231 8006ft 114kts
27-Dec-18 18:58 33.464540 -111.934393 232 8003ft 114kts
27-Dec-18 18:59 33.443579 -111.960754 232 8000ft 114kts
27-Dec-18 19:00 33.436169 -111.993128 275 7998ft 104kts
27-Dec-18 19:01 33.436950 -112.027767 275 7996ft 104kts
27-Dec-18 19:02 33.440231 -112.060380 312 7985ft 100kts
27-Dec-18 19:03 33.460123 -112.077173 320 7998ft 99kts
27-Dec-18 19:04 33.455671 -112.108193 253 8000ft 108kts
27-Dec-18 19:05 33.444849 -112.138865 251 7999ft 107kts
27-Dec-18 19:06 33.440394 -112.169457 270 8001ft 104kts
27-Dec-18 19:07 33.440534 -112.203540 273 8004ft 104kts
27-Dec-18 19:08 33.441442 -112.239060 274 7528ft 107kts
27-Dec-18 19:09 33.442353 -112.274822 274 7025ft 109kts
27-Dec-18 19:09 33.443135 -112.305101 275 6606ft 110kts
27-Dec-18 19:10 33.444040 -112.341159 275 6105ft 106kts
27-Dec-18 19:12 33.445046 -112.381739 274 5515ft 104kts
27-Dec-18 19:13 33.445734 -112.414717 273 5715ft 95kts
27-Dec-18 19:13 33.446281 -112.438977 273 6002ft 98kts
27-Dec-18 19:15 33.447157 -112.472719 273 5993ft 101kts
27-Dec-18 19:16 33.447954 -112.505672 272 5991ft 96kts
27-Dec-18 19:16 33.448708 -112.534728 272 5270ft 113kts
27-Dec-18 19:17 33.449571 -112.569674 272 4260ft 99kts
27-Dec-18 19:19 33.440014 -112.606005 234 3091ft 109kts
27-Dec-18 19:19 33.425405 -112.628220 233 3005ft 100kts
27-Dec-18 19:20 33.418515 -112.658193 260 3007ft 95kts
27-Dec-18 19:21 33.414482 -112.689464 262 2992ft 96kts
27-Dec-18 19:22 33.413833 -112.721384 291 2682ft 98kts
27-Dec-18 19:23 33.428082 -112.747174 347 2440ft 97kts
27-Dec-18 19:24 33.438851 -112.724370 109 2197ft 100kts
27-Dec-18 19:25 33.418992 -112.709328 175 2189ft 79kts
27-Dec-18 19:26 33.396780 -112.705093 129 1828ft 83kts
27-Dec-18 19:27 33.403965 -112.686909 356 1324ft 63kts
27-Dec-18 19:28 33.420182 -112.686375 4 1005ft 18kts
27-Dec-18 19:29 33.420855 -112.685232 93 1006ft 6kts
27-Dec-18 19:30 33.420476 -112.683480 261 1005ft 0kts
27-Dec-18 19:31 33.420457 -112.683574 267 1005ft 0kts
27-Dec-18 19:32 33.420457 -112.683574 267 1005ft 0kts
27-Dec-18 19:33 33.420457 -112.683574 267 1005ft 0kts
27-Dec-18 19:34 33.420457 -112.683574 267 1005ft 0kts
27-Dec-18 19:35 33.420457 -112.683574 267 1005ft 0kts
27-Dec-18 19:36 33.420457 -112.683574 267 1005ft 0kts
27-Dec-18 19:37 33.420457 -112.683574 267 1005ft 0kts
27-Dec-18 19:38 33.420457 -112.683574 267 1005ft 0kts
27-Dec-18 19:39 33.420457 -112.683574 267 1005ft 0kts

Navigation Log

Ident Type
Flight plan parsing failed, navigation log unavailable